Time;durP1;ratioP1;P1;durP2;ratioP2;P2;SDS_P1;SDS_P2;PMS_P1;PMS_P2;Temp;Humidity;BMP_temperature;BMP_pressure;BME280_temperature;BME280_humidity;BME280_pressure;Samples;Min_cycle;Max_cycle;Signal;HPM_P1;HPM_P2
2022/11/10 00:01:12;;;;;;;75.15;53.90;;;8.40;99.90;;;;;;4934848;29;20091;-74
2022/11/10 00:03:57;;;;;;;89.03;56.30;;;8.40;99.90;;;;;;4937893;29;20442;-71
2022/11/10 00:06:43;;;;;;;89.93;66.18;;;8.40;99.90;;;;;;4939731;29;20047;-71
2022/11/10 00:09:27;;;;;;;71.55;52.78;;;8.40;99.90;;;;;;4934432;29;20122;-68
2022/11/10 00:12:11;;;;;;;73.95;50.53;;;8.40;99.90;;;;;;4944788;28;20074;-69
2022/11/10 00:18:00;;;;;;;;;;;8.30;99.90;;;;;;4941216;29;20069;-73
2022/11/10 00:20:45;;;;;;;97.05;61.78;;;8.20;99.90;;;;;;4937084;29;20009;-74
2022/11/10 00:23:29;;;;;;;100.50;55.45;;;8.20;99.90;;;;;;4934310;29;20127;-72
2022/11/10 00:26:19;;;;;;;75.63;49.13;;;8.00;99.90;;;;;;4925576;29;20267;-73
2022/11/10 00:29:04;;;;;;;76.45;48.00;;;7.90;99.90;;;;;;4938867;29;20050;-73
2022/11/10 00:31:48;;;;;;;120.32;53.40;;;7.80;99.90;;;;;;4935187;29;20054;-72
2022/11/10 00:34:33;;;;;;;124.05;59.10;;;7.40;99.90;;;;;;4933064;29;20050;-74
2022/11/10 00:37:18;;;;;;;100.30;52.05;;;7.30;99.90;;;;;;4934496;29;20058;-68
2022/11/10 00:40:02;;;;;;;94.28;52.45;;;7.30;99.90;;;;;;4933946;29;20062;-68
2022/11/10 00:42:47;;;;;;;67.65;47.05;;;7.40;99.90;;;;;;4930011;29;20051;-71
2022/11/10 00:45:32;;;;;;;69.10;47.40;;;7.50;99.90;;;;;;4921428;29;20521;-70
2022/11/10 00:48:16;;;;;;;61.90;44.72;;;7.50;99.90;;;;;;4934204;29;20098;-70
2022/11/10 00:51:01;;;;;;;93.95;47.80;;;7.50;99.90;;;;;;4935446;29;20469;-68
2022/11/10 00:53:46;;;;;;;70.93;46.38;;;7.40;99.90;;;;;;4933553;29;20082;-68
2022/11/10 00:56:30;;;;;;;79.38;47.70;;;7.40;99.90;;;;;;4933739;29;20046;-68
2022/11/10 00:59:15;;;;;;;78.25;48.92;;;7.40;99.90;;;;;;4926110;29;20103;-74
2022/11/10 01:01:59;;;;;;;88.50;53.72;;;7.30;99.90;;;;;;4943609;29;20046;-68
2022/11/10 01:04:44;;;;;;;77.75;57.47;;;7.30;99.90;;;;;;4941745;29;20058;-69
2022/11/10 01:07:28;;;;;;;89.70;72.38;;;7.20;99.90;;;;;;4935089;28;20047;-69
2022/11/10 01:10:13;;;;;;;69.60;50.65;;;7.20;99.90;;;;;;4936362;29;20054;-69
2022/11/10 01:12:58;;;;;;;61.28;46.92;;;7.20;99.90;;;;;;4944390;29;20110;-69
2022/11/10 01:15:42;;;;;;;75.90;45.90;;;7.30;99.90;;;;;;4945681;29;20110;-68
2022/11/10 01:18:27;;;;;;;56.88;40.20;;;7.20;99.90;;;;;;4941512;29;20143;-68
2022/11/10 01:21:11;;;;;;;55.28;38.05;;;7.30;99.90;;;;;;4933654;29;20042;-69
2022/11/10 01:23:56;;;;;;;48.35;37.67;;;7.40;99.90;;;;;;4933617;29;20050;-69
2022/11/10 01:26:40;;;;;;;53.47;39.45;;;7.40;99.90;;;;;;4937223;29;20094;-72
2022/11/10 01:29:24;;;;;;;71.45;45.03;;;7.40;99.90;;;;;;4934347;29;20461;-68
2022/11/10 01:32:09;;;;;;;59.58;43.65;;;7.40;99.90;;;;;;4933563;29;20070;-68
2022/11/10 01:34:53;;;;;;;58.60;41.38;;;7.30;99.90;;;;;;4940100;29;20051;-69
2022/11/10 01:37:39;;;;;;;80.28;46.95;;;7.30;99.90;;;;;;4921404;29;20390;-69
2022/11/10 01:40:23;;;;;;;71.32;45.97;;;7.20;99.90;;;;;;4933454;29;20042;-67
2022/11/10 01:43:09;;;;;;;54.05;38.63;;;7.20;99.90;;;;;;4933635;29;20050;-69
2022/11/10 01:45:58;;;;;;;52.92;37.67;;;7.10;99.90;;;;;;4936202;29;20054;-73
2022/11/10 01:48:48;;;;;;;46.65;35.20;;;7.10;99.90;;;;;;4939635;29;20098;-68
2022/11/10 01:51:54;;;;;;;49.35;36.45;;;7.00;99.90;;;;;;4938928;29;20086;-69
2022/11/10 01:54:43;;;;;;;48.40;34.65;;;7.00;99.90;;;;;;4936800;29;20569;-73
2022/11/10 01:57:28;;;;;;;50.63;35.35;;;7.00;99.90;;;;;;4944050;29;20039;-71
2022/11/10 02:00:12;;;;;;;46.55;34.28;;;7.00;99.90;;;;;;4942059;29;20094;-73
2022/11/10 02:03:37;;;;;;;42.72;31.52;;;7.00;99.90;;;;;;4937620;29;20050;-68
2022/11/10 02:06:25;;;;;;;49.60;36.03;;;7.00;99.90;;;;;;4932373;29;20131;-70
2022/11/10 02:09:10;;;;;;;52.45;36.63;;;6.90;99.90;;;;;;4932806;29;20103;-70
2022/11/10 02:11:56;;;;;;;44.30;34.10;;;6.90;99.90;;;;;;4932299;29;20059;-71
2022/11/10 02:14:41;;;;;;;42.15;31.75;;;6.90;99.90;;;;;;4933080;29;20521;-68
2022/11/10 02:17:25;;;;;;;44.33;31.77;;;6.90;99.90;;;;;;4932547;29;20099;-71
2022/11/10 02:20:14;;;;;;;36.53;29.48;;;6.90;99.90;;;;;;4928720;28;20051;-69
2022/11/10 02:23:11;;;;;;;39.15;29.15;;;6.90;99.90;;;;;;4928218;29;20064;-70
2022/11/10 02:25:59;;;;;;;41.30;30.98;;;6.90;99.90;;;;;;4929421;29;20051;-70
2022/11/10 02:28:45;;;;;;;37.15;28.77;;;6.80;99.90;;;;;;4932921;29;20055;-71
2022/11/10 02:31:31;;;;;;;43.08;31.67;;;6.90;99.90;;;;;;4953167;29;20054;-69
2022/11/10 02:34:16;;;;;;;37.03;29.05;;;6.80;99.90;;;;;;4948755;29;20103;-68
2022/11/10 02:37:01;;;;;;;44.05;32.30;;;6.80;99.90;;;;;;4936391;29;20074;-69
2022/11/10 02:39:45;;;;;;;46.92;34.40;;;6.70;99.90;;;;;;4936606;29;20066;-69
2022/11/10 02:42:29;;;;;;;50.40;37.55;;;6.60;99.90;;;;;;4935937;29;20047;-68
2022/11/10 02:45:14;;;;;;;51.05;37.88;;;6.50;99.90;;;;;;4936165;29;20054;-68
2022/11/10 02:47:58;;;;;;;49.25;36.78;;;6.50;99.90;;;;;;4938042;29;20042;-68
2022/11/10 02:50:43;;;;;;;50.03;38.55;;;6.50;99.90;;;;;;4936051;29;20152;-68
2022/11/10 02:53:27;;;;;;;52.25;39.78;;;6.40;99.90;;;;;;4935872;29;20492;-68
2022/11/10 02:56:12;;;;;;;52.30;39.28;;;6.40;99.90;;;;;;4936229;29;20095;-68
2022/11/10 02:58:57;;;;;;;55.13;40.30;;;6.40;99.90;;;;;;4936021;29;20058;-69
2022/11/10 03:01:41;;;;;;;54.65;37.33;;;6.30;99.90;;;;;;4938308;29;20050;-74
2022/11/10 03:04:26;;;;;;;52.92;39.22;;;6.30;99.90;;;;;;4935845;29;20409;-70
2022/11/10 03:07:10;;;;;;;52.35;39.38;;;6.30;99.90;;;;;;4935567;29;20083;-69
2022/11/10 03:09:55;;;;;;;41.53;34.13;;;6.20;99.90;;;;;;4935557;29;20115;-69
2022/11/10 03:12:39;;;;;;;47.13;34.67;;;6.20;99.90;;;;;;4935492;29;20410;-68
2022/11/10 03:15:26;;;;;;;47.75;36.13;;;6.20;99.90;;;;;;4940801;29;20140;-70
2022/11/10 03:18:11;;;;;;;43.55;33.90;;;6.20;99.90;;;;;;4938714;29;20080;-68
2022/11/10 03:20:56;;;;;;;41.92;33.00;;;6.10;99.90;;;;;;4936540;29;20074;-70
2022/11/10 03:23:41;;;;;;;44.35;34.10;;;6.10;99.90;;;;;;4935443;29;20573;-67
2022/11/10 03:26:25;;;;;;;41.97;33.10;;;6.10;99.90;;;;;;4935658;29;20052;-68
2022/11/10 03:29:10;;;;;;;39.28;32.00;;;6.10;99.90;;;;;;4934993;29;20106;-69
2022/11/10 03:31:54;;;;;;;43.00;34.33;;;6.20;99.90;;;;;;4934619;29;20085;-68
2022/11/10 03:34:39;;;;;;;41.65;33.35;;;6.20;99.90;;;;;;4935134;29;20099;-69
2022/11/10 03:37:23;;;;;;;41.95;33.63;;;6.20;99.90;;;;;;4935126;29;20078;-74
2022/11/10 03:40:08;;;;;;;38.30;30.45;;;6.30;99.90;;;;;;4935155;29;20189;-69
2022/11/10 03:42:53;;;;;;;46.00;33.83;;;6.30;99.90;;;;;;4923548;29;20047;-69
2022/11/10 03:45:38;;;;;;;41.35;32.15;;;6.40;99.90;;;;;;4935048;29;20635;-68
2022/11/10 03:48:22;;;;;;;40.38;32.85;;;6.40;99.90;;;;;;4934959;29;20051;-69
2022/11/10 03:51:06;;;;;;;42.30;33.70;;;6.40;99.90;;;;;;4935321;29;20462;-69
2022/11/10 03:53:51;;;;;;;41.10;33.03;;;6.40;99.90;;;;;;4934810;29;20086;-68
2022/11/10 03:56:35;;;;;;;42.80;33.58;;;6.50;99.90;;;;;;4935103;29;20558;-68
2022/11/10 03:59:20;;;;;;;43.92;33.45;;;6.40;99.90;;;;;;4936573;29;20054;-69
2022/11/10 04:02:05;;;;;;;38.70;30.05;;;6.50;99.90;;;;;;4934853;29;20075;-69
2022/11/10 04:11:00;;;;;;;36.35;28.20;;;6.40;99.90;;;;;;4920572;29;20058;-68
2022/11/10 04:16:47;;;;;;;33.78;26.90;;;6.40;99.90;;;;;;4934450;29;20047;-69
2022/11/10 04:19:32;;;;;;;41.22;33.08;;;6.40;99.90;;;;;;4935092;29;20413;-68
2022/11/10 04:23:25;;;;;;;43.60;32.60;;;6.40;99.90;;;;;;4934068;29;20051;-69
2022/11/10 04:54:49;;;;;;;61.25;44.83;;;6.30;99.90;;;;;;5101932;27;20388;-66
2022/11/10 04:57:33;;;;;;;63.00;47.75;;;6.60;99.90;;;;;;5070340;28;20035;-67
2022/11/10 05:00:17;;;;;;;62.47;46.28;;;6.60;99.90;;;;;;5082240;28;20055;-69
2022/11/10 05:03:04;;;;;;;63.30;45.92;;;6.40;99.90;;;;;;5085554;28;20416;-67
2022/11/10 05:05:49;;;;;;;62.53;46.55;;;6.40;99.90;;;;;;5076132;28;20452;-67
2022/11/10 05:08:33;;;;;;;62.60;45.35;;;6.50;99.90;;;;;;5077530;28;20043;-66
2022/11/10 05:11:18;;;;;;;72.05;44.00;;;6.40;99.90;;;;;;5077141;28;20444;-67
2022/11/10 05:14:02;;;;;;;77.38;45.72;;;6.40;99.90;;;;;;5086122;28;20047;-67
2022/11/10 05:16:47;;;;;;;70.88;46.90;;;6.30;99.90;;;;;;5081047;28;20086;-67
2022/11/10 05:19:31;;;;;;;86.35;46.85;;;6.20;99.90;;;;;;5081513;28;20105;-68
2022/11/10 05:22:16;;;;;;;85.78;51.67;;;6.20;99.90;;;;;;5083712;28;20097;-70
2022/11/10 05:25:00;;;;;;;79.10;50.92;;;6.20;99.90;;;;;;5078083;28;20177;-67
2022/11/10 05:27:44;;;;;;;71.22;49.97;;;6.20;99.90;;;;;;5083416;28;20096;-68
2022/11/10 05:30:29;;;;;;;67.63;52.67;;;6.20;99.90;;;;;;5077048;28;20131;-66
2022/11/10 05:33:13;;;;;;;92.15;55.13;;;6.30;99.90;;;;;;5087329;28;20071;-68
2022/11/10 05:35:58;;;;;;;89.15;56.38;;;6.30;99.90;;;;;;5073110;28;20047;-66
2022/11/10 05:38:42;;;;;;;85.88;52.97;;;6.40;99.90;;;;;;5072376;28;20105;-71
2022/11/10 05:41:27;;;;;;;84.28;53.40;;;6.40;99.90;;;;;;5066753;28;20051;-67
2022/11/10 05:44:12;;;;;;;78.00;51.08;;;6.40;99.90;;;;;;5066520;28;20117;-67
2022/11/10 05:46:56;;;;;;;99.78;55.85;;;6.50;99.90;;;;;;5080395;28;20789;-67
2022/11/10 05:49:41;;;;;;;110.05;64.40;;;6.40;99.90;;;;;;5073795;28;20433;-67
2022/11/10 05:52:25;;;;;;;105.13;66.47;;;6.40;99.90;;;;;;5085493;28;20087;-67
2022/11/10 05:55:10;;;;;;;99.18;58.20;;;6.50;99.90;;;;;;5085852;28;20514;-67
2022/11/10 05:57:55;;;;;;;120.60;56.40;;;6.50;99.90;;;;;;5072991;28;20036;-68
2022/11/10 06:00:40;;;;;;;89.20;64.32;;;6.50;99.90;;;;;;5073248;28;20031;-67
2022/11/10 06:03:24;;;;;;;129.98;69.75;;;6.50;99.90;;;;;;5082062;28;20047;-67
2022/11/10 06:06:09;;;;;;;208.68;102.45;;;6.50;99.90;;;;;;5089306;28;20111;-67
2022/11/10 06:08:55;;;;;;;119.57;75.13;;;6.30;99.90;;;;;;5078192;28;20410;-67
2022/11/10 06:11:39;;;;;;;121.30;70.32;;;6.40;99.90;;;;;;5072896;28;20441;-67
2022/11/10 06:14:23;;;;;;;96.35;69.00;;;6.50;99.90;;;;;;5073089;28;20051;-68
2022/11/10 06:17:08;;;;;;;79.68;59.03;;;6.70;99.90;;;;;;5073322;28;20085;-67
2022/11/10 06:19:52;;;;;;;74.32;55.13;;;6.80;99.90;;;;;;5072499;28;20055;-68
2022/11/10 06:22:37;;;;;;;95.38;60.30;;;6.90;99.90;;;;;;5078391;28;20090;-67
2022/11/10 06:25:22;;;;;;;85.93;58.00;;;6.90;99.90;;;;;;5058134;28;20098;-67
2022/11/10 06:28:07;;;;;;;69.75;51.45;;;7.00;99.90;;;;;;5071375;28;20063;-67
2022/11/10 06:30:52;;;;;;;70.60;56.25;;;7.10;99.90;;;;;;5083679;28;20059;-67
2022/11/10 06:33:36;;;;;;;74.28;50.30;;;7.20;99.90;;;;;;5083505;28;20086;-67
2022/11/10 06:36:21;;;;;;;69.85;52.97;;;7.30;99.90;;;;;;5072469;28;20051;-69
2022/11/10 06:39:05;;;;;;;61.63;50.40;;;7.30;99.90;;;;;;5072686;28;20043;-67
2022/11/10 06:41:50;;;;;;;62.50;47.72;;;7.40;99.90;;;;;;5072748;28;20086;-67
2022/11/10 06:44:34;;;;;;;57.50;47.00;;;7.60;99.90;;;;;;5072336;28;20118;-67
2022/11/10 06:47:18;;;;;;;71.55;56.08;;;7.70;99.90;;;;;;5057055;28;20098;-68
2022/11/10 06:50:03;;;;;;;76.13;59.05;;;7.70;99.90;;;;;;5072598;28;20051;-68
2022/11/10 06:52:53;;;;;;;75.38;59.95;;;7.90;99.90;;;;;;5072438;28;20795;-67
2022/11/10 06:55:38;;;;;;;78.72;55.38;;;8.10;99.90;;;;;;5072164;28;20399;-71
2022/11/10 06:58:22;;;;;;;75.65;57.30;;;8.20;99.90;;;;;;5083419;28;20043;-67
2022/11/10 07:01:07;;;;;;;81.05;55.33;;;8.30;99.90;;;;;;5071626;28;20092;-67
2022/11/10 07:03:52;;;;;;;69.28;53.65;;;8.40;99.90;;;;;;5081523;28;20575;-67
2022/11/10 07:06:36;;;;;;;69.40;51.38;;;8.50;99.90;;;;;;5070479;28;20064;-72
2022/11/10 07:09:21;;;;;;;68.05;51.47;;;8.60;99.90;;;;;;5076137;28;20493;-70
2022/11/10 07:12:06;;;;;;;67.97;50.65;;;8.70;99.90;;;;;;5090662;28;20097;-68
2022/11/10 07:14:50;;;;;;;68.20;50.60;;;8.80;99.90;;;;;;5087687;28;20071;-72
2022/11/10 07:17:39;;;;;;;72.22;53.08;;;8.90;99.90;;;;;;5058629;28;20093;-68
2022/11/10 07:20:25;;;;;;;76.93;57.63;;;9.10;99.90;;;;;;5087031;28;20120;-68
2022/11/10 07:23:09;;;;;;;87.38;61.67;;;9.20;99.90;;;;;;5083093;28;20098;-68
2022/11/10 07:25:54;;;;;;;85.78;63.10;;;9.30;99.90;;;;;;5078220;28;20042;-68
2022/11/10 07:28:38;;;;;;;79.57;57.58;;;9.40;99.90;;;;;;5071403;28;20227;-67
2022/11/10 07:31:23;;;;;;;92.05;63.80;;;9.50;99.90;;;;;;5071688;28;20052;-68
2022/11/10 07:34:08;;;;;;;84.38;64.35;;;9.50;99.90;;;;;;5071365;28;20050;-68
2022/11/10 07:36:53;;;;;;;82.18;62.15;;;9.60;99.90;;;;;;5073907;28;20035;-70
2022/11/10 07:39:37;;;;;;;75.32;60.95;;;9.60;99.90;;;;;;5080058;28;20046;-68
2022/11/10 07:42:22;;;;;;;73.90;58.30;;;9.70;99.90;;;;;;5072566;28;20463;-68
2022/11/10 07:45:07;;;;;;;80.05;56.22;;;9.80;99.90;;;;;;5082063;28;20043;-68
2022/11/10 07:47:58;;;;;;;72.38;56.70;;;10.00;99.90;;;;;;5077721;28;20043;-68
2022/11/10 07:50:44;;;;;;;73.22;55.00;;;10.10;99.90;;;;;;5080476;28;20040;-69
2022/11/10 07:53:28;;;;;;;71.47;55.67;;;10.30;99.90;;;;;;5074980;28;20139;-68
2022/11/10 07:56:13;;;;;;;73.60;55.40;;;10.40;99.90;;;;;;5081705;28;20048;-70
2022/11/10 07:58:57;;;;;;;82.38;56.28;;;10.50;99.90;;;;;;5081920;28;20031;-68
2022/11/10 08:01:42;;;;;;;76.35;52.60;;;10.50;99.90;;;;;;5074047;28;20042;-68
2022/11/10 08:04:26;;;;;;;68.35;52.97;;;10.70;99.90;;;;;;5058440;28;20051;-68
2022/11/10 08:07:10;;;;;;;71.05;52.92;;;10.70;99.90;;;;;;5069917;28;20035;-68
2022/11/10 08:09:55;;;;;;;67.13;52.70;;;10.80;99.90;;;;;;5070981;28;20048;-68
2022/11/10 08:12:39;;;;;;;74.18;56.72;;;10.80;99.90;;;;;;5072809;28;20157;-71
2022/11/10 08:15:25;;;;;;;80.35;60.10;;;10.80;99.90;;;;;;5078895;28;20394;-73
2022/11/10 08:18:19;;;;;;;69.00;49.95;;;10.90;99.90;;;;;;5070048;28;20089;-68
2022/11/10 08:21:04;;;;;;;71.85;53.90;;;10.90;99.90;;;;;;5078972;28;20404;-71
2022/11/10 08:23:48;;;;;;;64.63;43.28;;;11.00;99.90;;;;;;5072719;28;20468;-68
2022/11/10 08:26:33;;;;;;;49.47;36.55;;;11.10;99.90;;;;;;5084378;28;20177;-69
2022/11/10 08:29:17;;;;;;;49.38;38.42;;;11.30;99.90;;;;;;5074968;28;20047;-67
2022/11/10 08:32:02;;;;;;;46.25;34.85;;;11.30;99.90;;;;;;5081705;28;20026;-68
2022/11/10 08:34:47;;;;;;;50.65;38.42;;;11.40;99.90;;;;;;5076681;28;20500;-68
2022/11/10 08:37:31;;;;;;;49.30;37.50;;;11.50;99.90;;;;;;5086329;28;20046;-69
2022/11/10 08:40:17;;;;;;;57.63;39.33;;;11.60;99.90;;;;;;5077126;28;20093;-68
2022/11/10 08:43:03;;;;;;;47.35;36.58;;;11.80;99.90;;;;;;5070830;28;20684;-69
2022/11/10 08:45:47;;;;;;;39.78;29.52;;;11.90;99.90;;;;;;5076155;28;20081;-68
2022/11/10 08:48:32;;;;;;;41.03;28.33;;;12.00;99.90;;;;;;5070230;28;20081;-68
2022/11/10 08:51:17;;;;;;;35.88;27.45;;;12.10;99.90;;;;;;5055099;28;20082;-70
2022/11/10 08:54:01;;;;;;;32.03;25.08;;;12.20;99.90;;;;;;5068595;28;20058;-69
2022/11/10 08:56:46;;;;;;;39.08;27.65;;;12.20;99.90;;;;;;5078897;28;20036;-68
2022/11/10 08:59:30;;;;;;;32.35;26.30;;;12.20;99.90;;;;;;5069886;28;20102;-68
2022/11/10 09:02:15;;;;;;;37.78;26.73;;;12.20;99.90;;;;;;5067741;28;20043;-69
2022/11/10 09:04:59;;;;;;;31.85;22.20;;;12.50;99.90;;;;;;5070671;28;20060;-69
2022/11/10 09:07:48;;;;;;;34.50;23.42;;;12.50;99.90;;;;;;5079898;28;20465;-70
2022/11/10 09:10:35;;;;;;;31.05;22.30;;;12.60;99.90;;;;;;5070602;28;20051;-69
2022/11/10 09:13:22;;;;;;;33.42;22.80;;;12.80;99.90;;;;;;5077441;28;20127;-69
2022/11/10 09:16:07;;;;;;;31.45;23.00;;;12.90;99.90;;;;;;5072621;28;20410;-69
2022/11/10 09:18:51;;;;;;;30.73;23.23;;;13.00;99.90;;;;;;5069826;28;20102;-71
2022/11/10 09:21:37;;;;;;;31.42;23.73;;;13.10;99.90;;;;;;5070635;28;20039;-70
2022/11/10 09:24:21;;;;;;;31.88;23.27;;;13.20;99.90;;;;;;5069719;28;20052;-69
2022/11/10 09:27:06;;;;;;;28.08;22.60;;;13.30;99.90;;;;;;5069967;28;20074;-69
2022/11/10 09:29:50;;;;;;;33.13;23.95;;;13.40;99.90;;;;;;5074285;28;20123;-69
2022/11/10 09:32:35;;;;;;;33.08;24.33;;;13.50;99.90;;;;;;5083005;28;20039;-70
2022/11/10 09:35:20;;;;;;;32.75;24.85;;;13.50;99.90;;;;;;5073981;28;20441;-70
2022/11/10 09:38:04;;;;;;;35.60;25.63;;;13.70;99.90;;;;;;5086537;28;20047;-70
2022/11/10 09:41:08;;;;;;;35.03;25.67;;;13.70;99.90;;;;;;5096141;28;20043;-70
2022/11/10 09:44:10;;;;;;;33.55;25.25;;;13.70;99.90;;;;;;5073193;28;20459;-73
2022/11/10 09:47:08;;;;;;;31.40;24.77;;;13.70;99.90;;;;;;5073885;28;20333;-70
2022/11/10 09:49:57;;;;;;;31.33;24.05;;;13.90;99.90;;;;;;5077039;28;20272;-73
2022/11/10 09:52:43;;;;;;;32.72;22.85;;;14.00;99.90;;;;;;5073239;28;20190;-70
2022/11/10 09:55:45;;;;;;;31.45;24.27;;;14.10;99.90;;;;;;5073192;28;20075;-70
2022/11/10 09:58:43;;;;;;;42.95;24.58;;;14.20;99.90;;;;;;5072994;28;20086;-72
2022/11/10 10:01:37;;;;;;;34.03;25.02;;;14.40;99.90;;;;;;5058141;28;20403;-70
2022/11/10 10:04:39;;;;;;;;;;;14.50;99.90;;;;;;5073388;28;20063;-71
2022/11/10 10:07:29;;;;;;;28.83;19.80;;;14.50;99.90;;;;;;5075790;28;19919;-71
2022/11/10 10:10:20;;;;;;;32.08;21.38;;;14.70;99.90;;;;;;5072200;28;20102;-71
2022/11/10 10:13:56;;;;;;;35.80;22.50;;;14.80;99.90;;;;;;5057934;28;20038;-70
2022/11/10 10:16:50;;;;;;;31.08;22.55;;;15.00;99.90;;;;;;5011274;28;20041;-71
2022/11/10 10:20:10;;;;;;;28.83;21.02;;;15.30;99.90;;;;;;5018755;28;20494;-71
2022/11/10 10:23:09;;;;;;;28.02;17.17;;;15.50;99.90;;;;;;5010695;28;20072;-70
2022/11/10 10:25:53;;;;;;;28.23;19.95;;;15.60;99.90;;;;;;5010499;28;20389;-71
2022/11/10 10:28:41;;;;;;;28.67;19.33;;;15.70;99.90;;;;;;5010879;28;20444;-70
2022/11/10 10:31:32;;;;;;;26.23;19.73;;;15.70;99.90;;;;;;5013951;28;20044;-71
2022/11/10 10:34:22;;;;;;;24.90;17.40;;;15.80;99.90;;;;;;5010486;28;20133;-71
2022/11/10 10:37:24;;;;;;;23.27;17.30;;;15.90;99.90;;;;;;5020565;28;20045;-71
2022/11/10 10:40:14;;;;;;;25.77;17.73;;;15.90;99.90;;;;;;5021787;28;20033;-71
2022/11/10 10:42:58;;;;;;;24.85;18.60;;;16.00;99.90;;;;;;5011308;28;20112;-71
2022/11/10 10:45:43;;;;;;;25.73;19.27;;;16.10;99.90;;;;;;5015500;28;20073;-73
2022/11/10 10:48:29;;;;;;;30.50;20.67;;;16.20;99.90;;;;;;5015136;28;20129;-74
2022/11/10 10:51:29;;;;;;;25.70;19.58;;;16.40;99.90;;;;;;5020459;28;20063;-71
2022/11/10 10:54:28;;;;;;;25.00;17.77;;;16.40;99.90;;;;;;5080342;28;20056;-71
2022/11/10 10:57:29;;;;;;;28.92;19.85;;;16.50;99.90;;;;;;5087554;28;20058;-75
2022/11/10 11:00:21;;;;;;;27.35;17.88;;;16.70;99.90;;;;;;5081402;28;20570;-71
2022/11/10 11:03:20;;;;;;;25.75;17.98;;;16.90;99.90;;;;;;5071664;28;20133;-72
2022/11/10 11:06:15;;;;;;;28.98;17.23;;;17.10;99.90;;;;;;5085220;28;20118;-72
2022/11/10 11:09:08;;;;;;;23.92;17.23;;;17.10;99.90;;;;;;5072752;28;20043;-71
2022/11/10 11:12:05;;;;;;;26.02;18.17;;;17.30;99.90;;;;;;5091667;28;20496;-73
2022/11/10 11:14:49;;;;;;;24.60;17.88;;;17.40;99.90;;;;;;5071647;28;20047;-73
2022/11/10 11:17:34;;;;;;;25.50;17.15;;;17.50;99.90;;;;;;5071082;28;20090;-72
2022/11/10 11:20:19;;;;;;;21.23;14.50;;;17.70;99.90;;;;;;5072958;28;20425;-72
2022/11/10 11:23:31;;;;;;;25.00;16.27;;;17.90;99.90;;;;;;5071643;28;20082;-72
2022/11/10 11:26:32;;;;;;;13.73;7.45;;;17.90;99.90;;;;;;5085308;28;20447;-72
2022/11/10 11:29:36;;;;;;;13.38;7.47;;;18.20;99.90;;;;;;5071680;28;20039;-72
2022/11/10 11:32:48;;;;;;;10.48;5.60;;;18.10;99.90;;;;;;5089651;28;20132;-73
2022/11/10 11:35:45;;;;;;;7.10;4.03;;;18.10;99.90;;;;;;5071426;28;20035;-72
2022/11/10 11:38:33;;;;;;;8.95;4.15;;;18.30;99.90;;;;;;5085287;28;20125;-75
2022/11/10 11:41:34;;;;;;;8.70;5.03;;;18.20;99.90;;;;;;5071000;28;20447;-72
2022/11/10 11:44:40;;;;;;;9.85;4.47;;;18.10;99.90;;;;;;5055922;28;20101;-72
2022/11/10 11:47:53;;;;;;;11.15;6.07;;;18.20;99.90;;;;;;5071618;28;20190;-72
2022/11/10 11:50:51;;;;;;;13.18;7.03;;;18.10;99.90;;;;;;5070963;28;20054;-73
2022/11/10 11:53:54;;;;;;;18.50;9.90;;;18.00;99.90;;;;;;5070412;28;20052;-73
2022/11/10 11:56:42;;;;;;;19.20;10.48;;;17.90;99.90;;;;;;5079398;28;20553;-76
2022/11/10 11:59:41;;;;;;;16.42;10.00;;;17.80;99.90;;;;;;5055728;28;20059;-72
2022/11/10 12:02:37;;;;;;;19.90;11.93;;;17.70;99.90;;;;;;5080266;28;20039;-72
2022/11/10 12:05:56;;;;;;;19.77;12.60;;;17.50;99.90;;;;;;5083706;28;20081;-72
2022/11/10 12:09:02;;;;;;;23.50;12.43;;;17.50;99.90;;;;;;5077815;28;20047;-72
2022/11/10 12:11:59;;;;;;;17.55;11.80;;;17.50;99.90;;;;;;5071276;28;20522;-72
2022/11/10 12:14:49;;;;;;;21.17;11.25;;;17.30;99.90;;;;;;5070629;28;20039;-72
2022/11/10 12:17:46;;;;;;;17.48;10.63;;;17.30;99.90;;;;;;5075324;28;20031;-73
2022/11/10 12:20:48;;;;;;;20.08;13.30;;;17.10;99.90;;;;;;5079161;28;20066;-73
2022/11/10 12:23:53;;;;;;;20.02;12.48;;;17.00;99.90;;;;;;5077381;28;20620;-73
2022/11/10 12:26:56;;;;;;;17.67;11.73;;;17.00;99.90;;;;;;5070883;28;20529;-73
2022/11/10 12:29:59;;;;;;;;;;;17.00;99.90;;;;;;5074208;28;20550;-77
2022/11/10 12:32:53;;;;;;;20.33;11.57;;;17.00;99.90;;;;;;5077964;28;19930;-73
2022/11/10 12:35:38;;;;;;;;;;;16.90;99.90;;;;;;5081371;28;20078;-72
2022/11/10 12:38:47;;;;;;;18.33;10.98;;;16.80;99.90;;;;;;5085090;28;20475;-73
2022/11/10 12:41:42;;;;;;;15.60;8.60;;;16.80;99.90;;;;;;5022846;28;20468;-73
2022/11/10 12:44:38;;;;;;;14.93;9.38;;;16.70;99.90;;;;;;5007613;28;20068;-75
2022/11/10 12:47:28;;;;;;;16.63;9.27;;;16.60;99.90;;;;;;5023359;28;20044;-73
2022/11/10 12:50:15;;;;;;;18.23;9.48;;;16.50;99.90;;;;;;5022245;28;20052;-73
2022/11/10 12:53:10;;;;;;;19.42;10.85;;;16.40;99.90;;;;;;5027910;28;20080;-74
2022/11/10 12:56:00;;;;;;;19.80;12.30;;;16.40;99.90;;;;;;5026852;28;20084;-76
2022/11/10 12:58:45;;;;;;;23.05;12.35;;;16.30;99.90;;;;;;5027559;28;20048;-76
2022/11/10 13:01:30;;;;;;;19.55;12.45;;;16.20;99.90;;;;;;5024405;28;20820;-74
2022/11/10 13:04:16;;;;;;;20.55;13.13;;;16.10;99.90;;;;;;5024772;28;20107;-73
2022/11/10 13:07:05;;;;;;;23.95;13.23;;;16.10;99.90;;;;;;5032004;28;20072;-72
2022/11/10 13:09:49;;;;;;;21.92;13.43;;;16.10;99.90;;;;;;5004100;28;20446;-73
2022/11/10 13:12:34;;;;;;;21.63;13.05;;;16.00;99.90;;;;;;5026874;28;20467;-74
2022/11/10 13:15:36;;;;;;;19.10;12.43;;;15.90;99.90;;;;;;5031465;28;20107;-75
2022/11/10 13:18:30;;;;;;;19.47;12.60;;;15.80;99.90;;;;;;5050980;28;20040;-73
2022/11/10 13:21:14;;;;;;;18.60;12.70;;;15.70;99.90;;;;;;5075942;28;20036;-73
2022/11/10 13:24:02;;;;;;;22.80;12.02;;;15.60;99.90;;;;;;5067160;28;20113;-74
2022/11/10 13:26:58;;;;;;;20.60;12.65;;;15.70;99.90;;;;;;5092182;28;20075;-77
2022/11/10 13:29:42;;;;;;;24.95;13.13;;;15.60;99.90;;;;;;5087357;28;20055;-72
2022/11/10 13:32:28;;;;;;;25.40;13.93;;;15.60;99.90;;;;;;5080349;28;20041;-72
2022/11/10 13:35:27;;;;;;;22.02;13.43;;;15.50;99.90;;;;;;5090814;28;20516;-73
2022/11/10 13:38:31;;;;;;;25.95;14.35;;;15.50;99.90;;;;;;5087384;28;20082;-72
2022/11/10 13:41:21;;;;;;;22.15;13.68;;;15.60;99.90;;;;;;5085437;28;20397;-72
2022/11/10 13:44:31;;;;;;;23.27;14.27;;;15.70;99.90;;;;;;5083471;28;20096;-73
2022/11/10 13:47:33;;;;;;;21.80;14.25;;;15.60;99.90;;;;;;5073390;28;20074;-73
2022/11/10 13:50:54;;;;;;;22.85;14.15;;;15.60;99.90;;;;;;5074442;28;20080;-78
2022/11/10 13:54:03;;;;;;;22.92;14.35;;;15.70;99.90;;;;;;5065281;28;20113;-71
2022/11/10 13:57:11;;;;;;;24.05;15.70;;;15.80;99.90;;;;;;5063672;28;20063;-74
2022/11/10 13:59:59;;;;;;;23.77;15.73;;;15.80;99.90;;;;;;5072984;28;20489;-72
2022/11/10 14:02:56;;;;;;;25.75;15.10;;;15.90;99.90;;;;;;5062973;28;20154;-77
2022/11/10 14:05:55;;;;;;;23.67;16.67;;;15.90;99.90;;;;;;5052591;28;20112;-72
2022/11/10 14:08:45;;;;;;;25.02;17.00;;;15.90;99.90;;;;;;5062425;28;20039;-72
2022/11/10 14:11:37;;;;;;;25.88;16.27;;;15.90;99.90;;;;;;5052986;28;20617;-75
2022/11/10 14:14:47;;;;;;;28.73;19.20;;;15.80;99.90;;;;;;5062702;28;20039;-74
2022/11/10 14:17:38;;;;;;;26.10;17.73;;;15.70;99.90;;;;;;5053212;28;20541;-74
2022/11/10 14:20:38;;;;;;;22.75;18.15;;;15.80;99.90;;;;;;5052479;28;20122;-74
2022/11/10 14:23:39;;;;;;;31.17;20.73;;;15.70;99.90;;;;;;5066054;28;20056;-76
2022/11/10 14:26:30;;;;;;;29.05;19.85;;;15.60;99.90;;;;;;5061360;28;20124;-75
2022/11/10 14:29:31;;;;;;;27.52;18.23;;;15.60;99.90;;;;;;5062954;28;20036;-73
2022/11/10 14:32:20;;;;;;;32.97;21.13;;;15.50;99.90;;;;;;5064153;28;20546;-78
2022/11/10 14:35:16;;;;;;;30.10;21.05;;;15.50;99.90;;;;;;5061209;28;20199;-74
2022/11/10 14:38:02;;;;;;;27.48;20.92;;;15.30;99.90;;;;;;5071761;28;20055;-73
2022/11/10 14:40:52;;;;;;;33.05;23.23;;;15.40;99.90;;;;;;5059403;28;20040;-72
2022/11/10 14:43:38;;;;;;;31.85;22.17;;;15.30;99.90;;;;;;5071378;28;20098;-74
2022/11/10 14:46:23;;;;;;;36.70;23.13;;;15.10;99.90;;;;;;5053640;28;20118;-73
2022/11/10 14:49:09;;;;;;;33.13;22.63;;;15.10;99.90;;;;;;5064695;28;20055;-72
2022/11/10 14:51:58;;;;;;;36.10;23.50;;;15.00;99.90;;;;;;5071860;28;20048;-73
2022/11/10 14:54:44;;;;;;;31.60;22.58;;;15.00;99.90;;;;;;5086149;28;20087;-73
2022/11/10 14:57:28;;;;;;;34.33;23.70;;;14.90;99.90;;;;;;5074608;28;20520;-74
2022/11/10 15:00:18;;;;;;;35.10;26.83;;;14.90;99.90;;;;;;5078790;28;20382;-75
2022/11/10 15:03:04;;;;;;;37.63;25.33;;;14.90;99.90;;;;;;5072663;28;20758;-72
2022/11/10 15:05:49;;;;;;;35.75;24.45;;;14.90;99.90;;;;;;5072592;28;20662;-72